Terminal Aerodrome Forecast
Issued by NWS

Home | Current Version | Previous Version | Text Only | Print | Product List | Glossary On
Versions: 1 2 3 4 5 6 7 8 9 10 11 12 13 14
000
FTUS43 KIND 121100
TAFBMG
TAF
KBMG 121122Z 1212/1312 17007KT P6SM SCT050 BKN100
      TEMPO 1214/1218 3SM TSRA BR SCT025 OVC050CB
     FM121900 21010KT P6SM FEW030 SCT050 BKN100
     FM130200 20007KT P6SM SCT100 BKN250
     FM130900 21011KT P6SM SCT050 SCT100 BKN250
      AMD LTD TO CLD VIS AND WIND TIL 121300=

USA.gov is the U.S. government's official web portal to all federal, state and local government web resources and services.